Flight Track Log - Related Links

Times and Time Zones

All times are in EDT time to prevent confusion due to time zone crossing. See the TRS265 flight status page for this flight to view local times or setup timezone preferences in your user account.

Time Position Orientation Groundspeed Altitude Reporting Facility
EDT Latitude Longitude Course Direction KTS MPH feet Rate Location/Type
Thu 12:39:43 PM 39.7000 -86.3000 218° Southwest 150 173 1,800  Level Indianapolis TRACON
Thu 12:40:01 PM 39.6833 -86.3167 218° Southwest 158 182 2,400 2,077 Climbing Indianapolis TRACON
Thu 12:41:01 PM 39.6333 -86.3167 180° South 210 242 4,500 2,000 Climbing Indianapolis TRACON
Thu 12:42:01 PM 39.5667 -86.3000 169° South 258 297 6,400 2,333 Climbing Indianapolis TRACON
Thu 12:43:07 PM 39.5000 -86.3000 180° South 275 316 9,400 2,043 Climbing Indianapolis TRACON
Thu 12:44:19 PM 39.4119 -86.3003 180° South 274 315 11,100 1,657 Climbing Indianapolis Center
Thu 12:45:21 PM 39.3000 -86.2939 177° South 329 379 13,100 2,032 Climbing Indianapolis Center
Thu 12:46:23 PM 39.2019 -86.2900 178° South 347 399 15,300 1,984 Climbing Indianapolis Center
Thu 12:47:25 PM 39.0986 -86.2836 177° South 364 419 17,200 1,968 Climbing Indianapolis Center
Thu 12:49:29 PM 38.8636 -86.2611 176° South 413 475 21,400 2,000 Climbing Indianapolis Center
Thu 12:50:31 PM 38.7425 -86.2483 175° South 426 490 23,400 1,839 Climbing Indianapolis Center
Thu 12:51:33 PM 38.6203 -86.2353 175° South 432 497 25,200 1,645 Climbing Indianapolis Center
Thu 12:52:35 PM 38.4958 -86.2386 181° South 439 505 26,800 1,500 Climbing Indianapolis Center
Thu 12:53:37 PM 38.3689 -86.2544 186° South 446 513 28,300 1,452 Climbing Indianapolis Center
Thu 12:54:39 PM 38.2419 -86.2711 186° South 448 516 29,800 1,548 Climbing Indianapolis Center
Thu 12:55:41 PM 38.0878 -86.2922 186° South 454 522 31,500 1,548 Climbing Indianapolis Center
Thu 12:56:43 PM 37.9617 -86.3097 186° South 454 522 33,000 720 Climbing Indianapolis Center
Thu 12:57:46 PM 37.8386 -86.3239 185° South 447 514 33,000  Level Indianapolis Center
Thu 12:58:48 PM 37.7064 -86.3422 186° South 446 513 33,000  Level Indianapolis Center
Thu 12:59:50 PM 37.5814 -86.3592 186° South 446 513 33,000  Level Indianapolis Center
Thu 01:00:52 PM 37.4564 -86.3756 186° South 446 513 33,000  Level Indianapolis Center
Thu 01:01:54 PM 37.3314 -86.3917 186° South 446 513 33,000  Level Indianapolis Center
Thu 01:02:56 PM 37.2067 -86.4072 186° South 446 513 33,000  Level Indianapolis Center
Thu 01:03:58 PM 37.0886 -86.4422 193° South 434 499 33,000  Level Indianapolis Center
Thu 01:04:38 PM 37.0114 -86.4728 198° South 435 501 33,000  Level Memphis Center
Thu 01:05:40 PM 36.8914 -86.5042 192° South 435 501 33,000  Level Memphis Center
Thu 01:06:42 PM 36.7689 -86.5303 190° South 436 502 33,000  Level Memphis Center
Thu 01:08:46 PM 36.4928 -86.4997 175° South 458 527 33,000  Level Memphis Center
Thu 01:09:48 PM 36.3642 -86.4775 172° South 458 527 33,000  Level Memphis Center
Thu 01:10:50 PM 36.2358 -86.4531 171° South 458 527 33,000  Level Memphis Center
Thu 01:11:52 PM 36.1125 -86.3900 158° South 471 542 33,000  Level Memphis Center
Thu 01:12:54 PM 35.9906 -86.3247 157° South 472 543 33,000  Level Memphis Center
Thu 01:13:56 PM 35.8689 -86.2594 156° South 472 543 33,000  Level Memphis Center
Thu 01:14:59 PM 35.7481 -86.1931 156° South 472 543 33,000  Level Memphis Center
Thu 01:17:00 PM 35.5014 -86.0603 156° South 471 542 33,000  Level Indianapolis Center
Thu 01:17:56 PM 35.3794 -85.9975 157° South 471 542 33,000  Level Atlanta Center
Thu 01:18:56 PM 35.2614 -85.9336 156° South 471 542 33,000  Level Atlanta Center
Thu 01:19:56 PM 35.1433 -85.8700 156° South 471 542 33,000  Level Atlanta Center
Thu 01:20:56 PM 35.0297 -85.7967 152° Southeast 471 542 33,000  Level Atlanta Center
Thu 01:21:56 PM 34.9203 -85.7106 147° Southeast 466 536 33,000 -1,067 Level Atlanta Center
Thu 01:23:56 PM 34.6992 -85.5394 148° Southeast 466 536 29,800 -1,933 Descending Atlanta Center
Thu 01:24:56 PM 34.5917 -85.4517 146° Southeast 471 542 27,200 -2,550 Descending Atlanta Center
Thu 01:25:56 PM 34.4883 -85.3744 148° Southeast 466 536 24,700 -2,450 Descending Atlanta Center
Thu 01:26:56 PM 34.3869 -85.2947 147° Southeast 445 512 22,300 -2,350 Descending Atlanta Center
Thu 01:27:56 PM 34.3039 -85.2308 148° Southeast 408 470 20,000 -2,367 Descending Atlanta Center
Thu 01:29:56 PM 34.1197 -85.0650 151° Southeast 401 461 15,200 -1,725 Descending Atlanta Center
Thu 01:31:56 PM 33.9772 -84.8831 133° Southeast 372 428 13,100 -1,067 Descending Atlanta Center
Thu 01:32:56 PM 33.9089 -84.7972 134° Southeast 367 422 12,000 -550 Descending Atlanta Center
Thu 01:33:56 PM 33.8406 -84.7142 135° Southeast 353 406 12,000  Level Atlanta Center
Thu 01:34:56 PM 33.7719 -84.6336 136° Southeast 353 406 12,000 -50 Level Atlanta Center
Thu 01:35:56 PM 33.7283 -84.5608 126° Southeast 303 349 11,900 -968 Descending Atlanta Center
Thu 01:37:00 PM 33.7333 -84.4667 86° East 267 307 10,000 -1,846 Descending Atlanta TRACON
Thu 01:38:06 PM 33.7333 -84.3667 90° East 247 284 7,900 -2,000 Descending Atlanta TRACON
Thu 01:39:00 PM 33.7333 -84.3000 90° East 238 274 6,000 -1,842 Descending Atlanta TRACON
Thu 01:40:00 PM 33.7000 -84.2500 129° Southeast 209 241 4,400 -1,650 Descending Atlanta TRACON
Thu 01:41:00 PM 33.6667 -84.2667 203° Southwest 181 208 2,700 -1,000 Descending Atlanta TRACON
Thu 01:42:06 PM 33.6500 -84.3333 244° Southwest 169 194 2,300 -571 Descending Atlanta TRACON
Thu 01:43:00 PM 33.6333 -84.4167 244° Southwest  Level FlightAware Approximate
Thu 01:43:06 PM 33.6500 -84.3833 270° West 131 151 1,500  Level Atlanta TRACON
Thu 01:47:00 PM 33.6333 -84.4167 244° Southwest  Level FlightAware Approximate
Thu 01:54:00 PM 33.6367 -84.4279 290° West  Level Estimated
Thu 01:55:00 PM 33.6367 -84.4279 North  Level Estimated
Thu 01:56:00 PM 33.6367 -84.4279 North  Level Estimated

Login

Don't have an account? Register now (free) for customized features, flight alerts, and more!